Language selection

My Weather Profile Weather Topics  | 

Pacific - North Coast: Past 24 Hour Conditions

 

Sandspit Airport

10:00 PM PST 28 January 2023
Disclaimer

This table is a summary of hourly weather conditions for the past 24 hours.
Please note that these observations might not always be representative of weather conditions over their associated marine area.

Date / Time
(PST)
Wind(knots) Conditions Visibility(km) Pressure(kPa) Air tempC) Relative humidity(%) Dew pointC)
28 January 2023
22:00 NNE 10 Mostly Cloudy 16 103.7 5 54 -4
21:00 NNE 9 Mostly Cloudy 16 103.7 5 57 -3
20:00 NNE 13 Cloudy 16 103.6 5 53 -4
19:00 NNE 13 Cloudy 16 103.6 5 59 -2
18:00 NNE 10 Cloudy 16 103.6 5 66 -1
17:00 SSE 2 Mostly Cloudy 16 103.5 5 59 -3
16:00 ESE 8 Mostly Cloudy 16 103.5 6 55 -3
15:00 E 9 Mostly Cloudy 16 103.4 6 57 -1
14:00 ESE 11 Mostly Cloudy 16 103.4 7 54 -2
13:00 E 10 Cloudy 16 103.3 7 79 3
12:00 N 13 gust 18 Mostly Cloudy 16 103.2 6 81 3
11:00 N 16 Mostly Cloudy 16 103.1 5 82 2
10:00 NNW 18 Mostly Cloudy 16 103.1 4 86 2
9:00 NNW 17 gust 22 Cloudy 16 103.0 4 88 2
8:00 NW 14 Cloudy 16 102.9 4 90 2
7:00 NW 15 Cloudy 16 102.9 4 89 2
6:00 NW 11 Mostly Cloudy 16 102.9 4 89 2
5:00 NW 12 Cloudy 16 102.9 4 86 2
4:00 NW 17 Cloudy 16 102.9 4 87 2
3:00 NW 13 Mostly Cloudy 16 102.9 4 87 2
2:00 NW 12 Mostly Cloudy 16 102.9 4 88 2
1:00 NW 12 Cloudy 16 102.9 4 86 2
0:00 NW 16 gust 21 Cloudy 16 103.0 4 87 2
27 January 2023
23:00 NW 15 Cloudy 16 103.0 4 88 2
22:00 NW 11 Cloudy 16 103.0 4 90 3

Zoom-in to make a selection

Map of Pacific - North Coast marine weather areas Middle Nomad - 46004 South Nomad - 46036 Dixon Entrance Central - 46145 South Moresby - 46147 Nanakwa Shoal - 46181 North Hecate Strait - 46183 North Nomad - 46184 South Hecate Strait - 46185 West Sea Otter - 46204 West Dixon Entrance - 46205 East Dellwood - 46207 West Moresby - 46208 Sartine Island Cape St.James Kindakun Rocks Langara Island Masset Municipal Airport Rose Spit Sandspit Airport Bella Bella Airport Bella Coola Airport Bonilla Island Cathedral Point Cumshewa Island Grey Islet Holland Rock Lucy Islands Lightstation Prince Rupert Airport
Legend:
buoy Buoy
land station Land Station

Pacific - North Coast Area

Another Region

What we are doing

Date modified: